sensor_id;sensor_type;location;lat;lon;timestamp;P1;durP1;ratioP1;P2;durP2;ratioP2
24401;SDS011;12539;48.808;11.292;2022-09-03T00:01:37;1.10;;;0.70;;
24401;SDS011;12539;48.808;11.292;2022-09-03T00:04:19;2.42;;;0.88;;
24401;SDS011;12539;48.808;11.292;2022-09-03T00:07:02;1.40;;;1.02;;
24401;SDS011;12539;48.808;11.292;2022-09-03T00:09:38;1.38;;;0.80;;
24401;SDS011;12539;48.808;11.292;2022-09-03T00:12:18;1.05;;;0.80;;
24401;SDS011;12539;48.808;11.292;2022-09-03T00:15:02;0.75;;;0.63;;
24401;SDS011;12539;48.808;11.292;2022-09-03T00:17:36;0.70;;;0.70;;
24401;SDS011;12539;48.808;11.292;2022-09-03T00:20:21;0.93;;;0.80;;
24401;SDS011;12539;48.808;11.292;2022-09-03T00:22:56;1.27;;;0.85;;
24401;SDS011;12539;48.808;11.292;2022-09-03T00:25:45;0.68;;;0.65;;
24401;SDS011;12539;48.808;11.292;2022-09-03T00:28:19;1.60;;;0.82;;
24401;SDS011;12539;48.808;11.292;2022-09-03T00:30:50;0.60;;;0.60;;
24401;SDS011;12539;48.808;11.292;2022-09-03T00:33:23;0.70;;;0.70;;
24401;SDS011;12539;48.808;11.292;2022-09-03T00:36:03;1.00;;;0.70;;
24401;SDS011;12539;48.808;11.292;2022-09-03T00:38:40;1.80;;;0.70;;
24401;SDS011;12539;48.808;11.292;2022-09-03T00:51:52;1.75;;;1.00;;
24401;SDS011;12539;48.808;11.292;2022-09-03T01:17:04;1.00;;;0.90;;
24401;SDS011;12539;48.808;11.292;2022-09-03T01:30:41;2.45;;;1.20;;
24401;SDS011;12539;48.808;11.292;2022-09-03T01:33:22;1.73;;;0.90;;
24401;SDS011;12539;48.808;11.292;2022-09-03T01:36:13;3.22;;;0.80;;
24401;SDS011;12539;48.808;11.292;2022-09-03T01:39:03;0.80;;;0.80;;
24401;SDS011;12539;48.808;11.292;2022-09-03T01:50:34;1.42;;;0.77;;
24401;SDS011;12539;48.808;11.292;2022-09-03T01:52:53;2.70;;;1.10;;
24401;SDS011;12539;48.808;11.292;2022-09-03T02:00:42;1.20;;;0.85;;
24401;SDS011;12539;48.808;11.292;2022-09-03T02:03:13;1.13;;;0.80;;
24401;SDS011;12539;48.808;11.292;2022-09-03T02:05:40;0.90;;;0.70;;
24401;SDS011;12539;48.808;11.292;2022-09-03T02:08:08;1.85;;;0.77;;
24401;SDS011;12539;48.808;11.292;2022-09-03T02:13:16;0.77;;;0.77;;
24401;SDS011;12539;48.808;11.292;2022-09-03T02:15:52;1.77;;;1.10;;
24401;SDS011;12539;48.808;11.292;2022-09-03T02:18:25;0.70;;;0.68;;
24401;SDS011;12539;48.808;11.292;2022-09-03T02:20:55;1.17;;;0.80;;
24401;SDS011;12539;48.808;11.292;2022-09-03T02:23:23;1.33;;;1.23;;
24401;SDS011;12539;48.808;11.292;2022-09-03T02:25:51;3.38;;;1.00;;
24401;SDS011;12539;48.808;11.292;2022-09-03T02:28:21;0.98;;;0.80;;
24401;SDS011;12539;48.808;11.292;2022-09-03T02:30:47;0.68;;;0.68;;
24401;SDS011;12539;48.808;11.292;2022-09-03T02:33:13;1.00;;;0.80;;
24401;SDS011;12539;48.808;11.292;2022-09-03T02:35:40;1.80;;;0.73;;
24401;SDS011;12539;48.808;11.292;2022-09-03T02:38:14;0.75;;;0.73;;
24401;SDS011;12539;48.808;11.292;2022-09-03T02:40:45;1.17;;;0.93;;
24401;SDS011;12539;48.808;11.292;2022-09-03T02:43:16;3.95;;;0.80;;
24401;SDS011;12539;48.808;11.292;2022-09-03T02:45:47;1.35;;;0.85;;
24401;SDS011;12539;48.808;11.292;2022-09-03T02:48:18;0.82;;;0.70;;
24401;SDS011;12539;48.808;11.292;2022-09-03T02:50:47;1.75;;;0.73;;
24401;SDS011;12539;48.808;11.292;2022-09-03T02:53:12;1.00;;;0.90;;
24401;SDS011;12539;48.808;11.292;2022-09-03T02:55:38;1.23;;;0.85;;
24401;SDS011;12539;48.808;11.292;2022-09-03T02:58:04;2.92;;;0.90;;
24401;SDS011;12539;48.808;11.292;2022-09-03T03:00:31;0.82;;;0.80;;
24401;SDS011;12539;48.808;11.292;2022-09-03T03:02:57;5.45;;;0.95;;
24401;SDS011;12539;48.808;11.292;2022-09-03T03:05:25;1.00;;;0.68;;
24401;SDS011;12539;48.808;11.292;2022-09-03T03:08:10;2.97;;;0.98;;
24401;SDS011;12539;48.808;11.292;2022-09-03T03:10:39;0.98;;;0.68;;
24401;SDS011;12539;48.808;11.292;2022-09-03T03:13:09;2.22;;;0.90;;
24401;SDS011;12539;48.808;11.292;2022-09-03T03:15:35;0.85;;;0.75;;
24401;SDS011;12539;48.808;11.292;2022-09-03T03:18:01;4.07;;;1.00;;
24401;SDS011;12539;48.808;11.292;2022-09-03T03:20:26;0.88;;;0.70;;
24401;SDS011;12539;48.808;11.292;2022-09-03T03:22:52;0.90;;;0.80;;
24401;SDS011;12539;48.808;11.292;2022-09-03T03:25:18;0.80;;;0.80;;
24401;SDS011;12539;48.808;11.292;2022-09-03T03:27:44;2.10;;;1.10;;
24401;SDS011;12539;48.808;11.292;2022-09-03T03:30:10;0.90;;;0.80;;
24401;SDS011;12539;48.808;11.292;2022-09-03T03:32:36;1.70;;;0.80;;
24401;SDS011;12539;48.808;11.292;2022-09-03T03:35:03;1.10;;;0.90;;
24401;SDS011;12539;48.808;11.292;2022-09-03T03:37:30;1.08;;;0.82;;
24401;SDS011;12539;48.808;11.292;2022-09-03T03:39:57;2.05;;;1.20;;
24401;SDS011;12539;48.808;11.292;2022-09-03T03:42:23;4.63;;;0.98;;
24401;SDS011;12539;48.808;11.292;2022-09-03T03:44:49;1.42;;;0.88;;
24401;SDS011;12539;48.808;11.292;2022-09-03T03:47:15;1.15;;;0.90;;
24401;SDS011;12539;48.808;11.292;2022-09-03T03:49:41;2.03;;;1.13;;
24401;SDS011;12539;48.808;11.292;2022-09-03T03:52:08;2.05;;;0.80;;
24401;SDS011;12539;48.808;11.292;2022-09-03T03:54:34;1.35;;;0.90;;
24401;SDS011;12539;48.808;11.292;2022-09-03T03:56:59;1.38;;;1.15;;
24401;SDS011;12539;48.808;11.292;2022-09-03T03:59:25;2.03;;;0.70;;
24401;SDS011;12539;48.808;11.292;2022-09-03T04:01:53;1.48;;;1.08;;
24401;SDS011;12539;48.808;11.292;2022-09-03T04:04:19;1.88;;;0.80;;
24401;SDS011;12539;48.808;11.292;2022-09-03T04:06:45;1.65;;;0.70;;
24401;SDS011;12539;48.808;11.292;2022-09-03T04:09:11;1.40;;;0.82;;
24401;SDS011;12539;48.808;11.292;2022-09-03T04:11:37;0.80;;;0.77;;
24401;SDS011;12539;48.808;11.292;2022-09-03T04:14:03;0.88;;;0.88;;
24401;SDS011;12539;48.808;11.292;2022-09-03T04:16:29;0.98;;;0.90;;
24401;SDS011;12539;48.808;11.292;2022-09-03T04:18:56;1.23;;;0.65;;
24401;SDS011;12539;48.808;11.292;2022-09-03T04:21:26;0.70;;;0.70;;
24401;SDS011;12539;48.808;11.292;2022-09-03T04:23:54;1.50;;;1.00;;
24401;SDS011;12539;48.808;11.292;2022-09-03T04:26:21;0.80;;;0.65;;
24401;SDS011;12539;48.808;11.292;2022-09-03T04:28:57;1.15;;;0.90;;
24401;SDS011;12539;48.808;11.292;2022-09-03T04:31:28;0.90;;;0.80;;
24401;SDS011;12539;48.808;11.292;2022-09-03T04:33:54;1.13;;;0.73;;
24401;SDS011;12539;48.808;11.292;2022-09-03T04:36:21;2.28;;;0.80;;
24401;SDS011;12539;48.808;11.292;2022-09-03T04:38:49;0.90;;;0.75;;
24401;SDS011;12539;48.808;11.292;2022-09-03T04:41:19;1.10;;;1.00;;
24401;SDS011;12539;48.808;11.292;2022-09-03T04:43:49;0.85;;;0.70;;
24401;SDS011;12539;48.808;11.292;2022-09-03T04:46:15;2.50;;;1.00;;
24401;SDS011;12539;48.808;11.292;2022-09-03T04:48:41;1.08;;;0.98;;
24401;SDS011;12539;48.808;11.292;2022-09-03T04:51:12;1.38;;;0.82;;
24401;SDS011;12539;48.808;11.292;2022-09-03T04:53:40;1.00;;;0.77;;
24401;SDS011;12539;48.808;11.292;2022-09-03T04:56:20;2.80;;;1.20;;
24401;SDS011;12539;48.808;11.292;2022-09-03T05:01:19;2.15;;;1.00;;
24401;SDS011;12539;48.808;11.292;2022-09-03T05:03:46;1.05;;;0.80;;
24401;SDS011;12539;48.808;11.292;2022-09-03T05:06:13;1.42;;;0.90;;
24401;SDS011;12539;48.808;11.292;2022-09-03T05:08:41;1.05;;;0.80;;
24401;SDS011;12539;48.808;11.292;2022-09-03T05:11:08;1.77;;;1.02;;
24401;SDS011;12539;48.808;11.292;2022-09-03T05:13:34;1.33;;;0.90;;
24401;SDS011;12539;48.808;11.292;2022-09-03T05:16:05;2.35;;;0.88;;
24401;SDS011;12539;48.808;11.292;2022-09-03T05:18:32;1.20;;;1.00;;
24401;SDS011;12539;48.808;11.292;2022-09-03T05:21:02;1.02;;;0.85;;
24401;SDS011;12539;48.808;11.292;2022-09-03T05:23:36;1.52;;;0.80;;
24401;SDS011;12539;48.808;11.292;2022-09-03T05:26:04;0.88;;;0.60;;
24401;SDS011;12539;48.808;11.292;2022-09-03T05:31:02;1.48;;;0.90;;
24401;SDS011;12539;48.808;11.292;2022-09-03T05:33:36;1.42;;;0.88;;
24401;SDS011;12539;48.808;11.292;2022-09-03T05:36:04;1.05;;;1.00;;
24401;SDS011;12539;48.808;11.292;2022-09-03T05:38:32;1.08;;;0.73;;
24401;SDS011;12539;48.808;11.292;2022-09-03T05:40:59;2.03;;;0.90;;
24401;SDS011;12539;48.808;11.292;2022-09-03T05:43:25;1.77;;;0.80;;
24401;SDS011;12539;48.808;11.292;2022-09-03T05:48:28;1.23;;;0.88;;
24401;SDS011;12539;48.808;11.292;2022-09-03T05:51:02;2.30;;;0.90;;
24401;SDS011;12539;48.808;11.292;2022-09-03T05:53:31;1.15;;;0.80;;
24401;SDS011;12539;48.808;11.292;2022-09-03T05:55:59;0.60;;;0.60;;
24401;SDS011;12539;48.808;11.292;2022-09-03T05:58:30;1.63;;;1.00;;
24401;SDS011;12539;48.808;11.292;2022-09-03T06:00:56;1.50;;;0.82;;
24401;SDS011;12539;48.808;11.292;2022-09-03T06:03:23;2.90;;;1.08;;
24401;SDS011;12539;48.808;11.292;2022-09-03T06:05:52;1.10;;;0.90;;
24401;SDS011;12539;48.808;11.292;2022-09-03T06:08:19;0.93;;;0.83;;
24401;SDS011;12539;48.808;11.292;2022-09-03T06:10:46;0.95;;;0.80;;
24401;SDS011;12539;48.808;11.292;2022-09-03T06:13:12;2.38;;;1.23;;
24401;SDS011;12539;48.808;11.292;2022-09-03T06:15:38;3.20;;;1.70;;
24401;SDS011;12539;48.808;11.292;2022-09-03T06:18:04;3.95;;;1.80;;
24401;SDS011;12539;48.808;11.292;2022-09-03T06:20:30;3.05;;;1.58;;
24401;SDS011;12539;48.808;11.292;2022-09-03T06:22:57;6.05;;;2.20;;
24401;SDS011;12539;48.808;11.292;2022-09-03T06:25:23;7.28;;;2.42;;
24401;SDS011;12539;48.808;11.292;2022-09-03T06:27:49;8.77;;;3.25;;
24401;SDS011;12539;48.808;11.292;2022-09-03T06:30:15;3.65;;;2.05;;
24401;SDS011;12539;48.808;11.292;2022-09-03T06:32:44;4.15;;;2.30;;
24401;SDS011;12539;48.808;11.292;2022-09-03T06:35:11;6.10;;;2.20;;
24401;SDS011;12539;48.808;11.292;2022-09-03T06:37:40;3.40;;;1.80;;
24401;SDS011;12539;48.808;11.292;2022-09-03T06:40:06;2.55;;;1.50;;
24401;SDS011;12539;48.808;11.292;2022-09-03T06:42:36;1.83;;;1.42;;
24401;SDS011;12539;48.808;11.292;2022-09-03T06:45:06;2.63;;;1.85;;
24401;SDS011;12539;48.808;11.292;2022-09-03T06:47:35;4.10;;;1.95;;
24401;SDS011;12539;48.808;11.292;2022-09-03T06:50:00;1.95;;;1.27;;
24401;SDS011;12539;48.808;11.292;2022-09-03T06:52:29;3.15;;;1.73;;
24401;SDS011;12539;48.808;11.292;2022-09-03T06:54:55;3.60;;;1.70;;
24401;SDS011;12539;48.808;11.292;2022-09-03T06:57:20;3.25;;;1.70;;
24401;SDS011;12539;48.808;11.292;2022-09-03T06:59:46;5.60;;;1.83;;
24401;SDS011;12539;48.808;11.292;2022-09-03T07:02:13;3.55;;;1.48;;
24401;SDS011;12539;48.808;11.292;2022-09-03T07:04:39;4.55;;;1.33;;
24401;SDS011;12539;48.808;11.292;2022-09-03T07:07:04;2.72;;;1.40;;
24401;SDS011;12539;48.808;11.292;2022-09-03T07:09:37;5.57;;;3.47;;
24401;SDS011;12539;48.808;11.292;2022-09-03T07:12:03;3.35;;;1.60;;
24401;SDS011;12539;48.808;11.292;2022-09-03T07:14:28;3.72;;;1.88;;
24401;SDS011;12539;48.808;11.292;2022-09-03T07:16:54;3.85;;;1.92;;
24401;SDS011;12539;48.808;11.292;2022-09-03T07:19:20;4.10;;;1.77;;
24401;SDS011;12539;48.808;11.292;2022-09-03T07:21:45;4.95;;;1.85;;
24401;SDS011;12539;48.808;11.292;2022-09-03T07:24:11;7.55;;;3.53;;
24401;SDS011;12539;48.808;11.292;2022-09-03T07:26:38;3.67;;;2.25;;
24401;SDS011;12539;48.808;11.292;2022-09-03T07:29:05;5.05;;;2.20;;
24401;SDS011;12539;48.808;11.292;2022-09-03T07:31:36;5.05;;;1.80;;
24401;SDS011;12539;48.808;11.292;2022-09-03T07:34:04;5.20;;;2.00;;
24401;SDS011;12539;48.808;11.292;2022-09-03T07:36:35;5.15;;;1.63;;
24401;SDS011;12539;48.808;11.292;2022-09-03T07:39:10;5.03;;;1.75;;
24401;SDS011;12539;48.808;11.292;2022-09-03T07:41:37;2.17;;;1.30;;
24401;SDS011;12539;48.808;11.292;2022-09-03T07:44:03;2.80;;;1.80;;
24401;SDS011;12539;48.808;11.292;2022-09-03T07:46:32;3.00;;;1.70;;
24401;SDS011;12539;48.808;11.292;2022-09-03T07:49:00;3.75;;;2.08;;
24401;SDS011;12539;48.808;11.292;2022-09-03T07:51:27;3.70;;;1.50;;
24401;SDS011;12539;48.808;11.292;2022-09-03T07:53:56;2.30;;;1.50;;
24401;SDS011;12539;48.808;11.292;2022-09-03T07:56:24;2.58;;;1.52;;
24401;SDS011;12539;48.808;11.292;2022-09-03T07:58:51;4.40;;;2.40;;
24401;SDS011;12539;48.808;11.292;2022-09-03T08:01:20;5.40;;;2.35;;
24401;SDS011;12539;48.808;11.292;2022-09-03T08:03:48;4.80;;;2.25;;
24401;SDS011;12539;48.808;11.292;2022-09-03T08:06:15;4.75;;;1.83;;
24401;SDS011;12539;48.808;11.292;2022-09-03T08:08:42;5.47;;;1.88;;
24401;SDS011;12539;48.808;11.292;2022-09-03T08:11:12;2.83;;;1.67;;
24401;SDS011;12539;48.808;11.292;2022-09-03T08:13:47;5.30;;;1.77;;
24401;SDS011;12539;48.808;11.292;2022-09-03T08:16:17;4.57;;;1.70;;
24401;SDS011;12539;48.808;11.292;2022-09-03T08:18:43;3.00;;;1.70;;
24401;SDS011;12539;48.808;11.292;2022-09-03T08:21:15;5.38;;;2.00;;
24401;SDS011;12539;48.808;11.292;2022-09-03T08:23:48;2.72;;;1.70;;
24401;SDS011;12539;48.808;11.292;2022-09-03T08:26:16;3.50;;;2.03;;
24401;SDS011;12539;48.808;11.292;2022-09-03T08:28:43;4.65;;;1.90;;
24401;SDS011;12539;48.808;11.292;2022-09-03T08:31:11;4.65;;;1.60;;
24401;SDS011;12539;48.808;11.292;2022-09-03T08:33:41;4.25;;;1.98;;
24401;SDS011;12539;48.808;11.292;2022-09-03T08:36:12;3.40;;;1.77;;
24401;SDS011;12539;48.808;11.292;2022-09-03T08:38:40;3.00;;;1.85;;
24401;SDS011;12539;48.808;11.292;2022-09-03T08:41:12;4.63;;;1.80;;
24401;SDS011;12539;48.808;11.292;2022-09-03T08:43:55;3.97;;;1.70;;
24401;SDS011;12539;48.808;11.292;2022-09-03T08:46:36;5.78;;;2.08;;
24401;SDS011;12539;48.808;11.292;2022-09-03T08:49:11;2.70;;;1.73;;
24401;SDS011;12539;48.808;11.292;2022-09-03T08:51:40;4.78;;;2.70;;
24401;SDS011;12539;48.808;11.292;2022-09-03T08:54:10;3.63;;;1.80;;
24401;SDS011;12539;48.808;11.292;2022-09-03T08:56:38;4.43;;;1.92;;
24401;SDS011;12539;48.808;11.292;2022-09-03T08:59:07;3.47;;;2.08;;
24401;SDS011;12539;48.808;11.292;2022-09-03T09:15:09;2.53;;;1.77;;
24401;SDS011;12539;48.808;11.292;2022-09-03T09:20:51;3.05;;;1.52;;
24401;SDS011;12539;48.808;11.292;2022-09-03T09:25:58;2.25;;;1.67;;
24401;SDS011;12539;48.808;11.292;2022-09-03T09:28:37;2.90;;;1.88;;
24401;SDS011;12539;48.808;11.292;2022-09-03T09:31:04;4.57;;;1.80;;
24401;SDS011;12539;48.808;11.292;2022-09-03T09:33:33;3.03;;;1.65;;
24401;SDS011;12539;48.808;11.292;2022-09-03T09:36:00;3.10;;;1.48;;
24401;SDS011;12539;48.808;11.292;2022-09-03T09:38:29;1.90;;;1.70;;
24401;SDS011;12539;48.808;11.292;2022-09-03T09:41:13;3.05;;;1.73;;
24401;SDS011;12539;48.808;11.292;2022-09-03T09:43:43;4.05;;;2.10;;
24401;SDS011;12539;48.808;11.292;2022-09-03T09:49:00;2.58;;;2.00;;
24401;SDS011;12539;48.808;11.292;2022-09-03T09:51:28;3.63;;;1.90;;
24401;SDS011;12539;48.808;11.292;2022-09-03T09:53:59;5.35;;;2.42;;
24401;SDS011;12539;48.808;11.292;2022-09-03T09:56:26;3.83;;;2.47;;
24401;SDS011;12539;48.808;11.292;2022-09-03T09:59:03;4.28;;;1.70;;
24401;SDS011;12539;48.808;11.292;2022-09-03T10:01:30;4.53;;;2.70;;
24401;SDS011;12539;48.808;11.292;2022-09-03T10:03:58;2.78;;;2.33;;
24401;SDS011;12539;48.808;11.292;2022-09-03T10:06:32;3.25;;;1.77;;
24401;SDS011;12539;48.808;11.292;2022-09-03T10:09:22;3.83;;;1.60;;
24401;SDS011;12539;48.808;11.292;2022-09-03T10:11:55;4.13;;;2.05;;
24401;SDS011;12539;48.808;11.292;2022-09-03T10:14:36;2.55;;;2.03;;
24401;SDS011;12539;48.808;11.292;2022-09-03T10:28:16;6.25;;;3.25;;
24401;SDS011;12539;48.808;11.292;2022-09-03T10:30:49;3.03;;;2.25;;
24401;SDS011;12539;48.808;11.292;2022-09-03T10:33:41;3.72;;;2.38;;
24401;SDS011;12539;48.808;11.292;2022-09-03T10:36:30;3.72;;;3.35;;
24401;SDS011;12539;48.808;11.292;2022-09-03T10:41:57;4.82;;;3.10;;
24401;SDS011;12539;48.808;11.292;2022-09-03T10:44:39;3.03;;;2.20;;
24401;SDS011;12539;48.808;11.292;2022-09-03T10:53:18;4.85;;;2.72;;
24401;SDS011;12539;48.808;11.292;2022-09-03T10:56:10;3.05;;;2.10;;
24401;SDS011;12539;48.808;11.292;2022-09-03T10:58:51;4.03;;;2.78;;
24401;SDS011;12539;48.808;11.292;2022-09-03T11:01:31;2.30;;;1.90;;
24401;SDS011;12539;48.808;11.292;2022-09-03T11:07:01;3.10;;;1.90;;
24401;SDS011;12539;48.808;11.292;2022-09-03T11:12:08;3.15;;;2.13;;
24401;SDS011;12539;48.808;11.292;2022-09-03T11:14:44;3.65;;;1.98;;
24401;SDS011;12539;48.808;11.292;2022-09-03T11:17:15;4.10;;;2.80;;
24401;SDS011;12539;48.808;11.292;2022-09-03T11:20:02;3.45;;;3.00;;
24401;SDS011;12539;48.808;11.292;2022-09-03T11:22:36;2.30;;;1.92;;
24401;SDS011;12539;48.808;11.292;2022-09-03T11:25:03;3.20;;;2.42;;
24401;SDS011;12539;48.808;11.292;2022-09-03T11:30:07;2.90;;;2.60;;
24401;SDS011;12539;48.808;11.292;2022-09-03T11:38:07;3.30;;;2.67;;
24401;SDS011;12539;48.808;11.292;2022-09-03T11:43:50;4.57;;;2.60;;
24401;SDS011;12539;48.808;11.292;2022-09-03T11:48:48;4.38;;;3.20;;
24401;SDS011;12539;48.808;11.292;2022-09-03T11:56:47;3.58;;;2.92;;
24401;SDS011;12539;48.808;11.292;2022-09-03T12:01:46;2.30;;;2.05;;
24401;SDS011;12539;48.808;11.292;2022-09-03T12:04:15;2.35;;;2.08;;
24401;SDS011;12539;48.808;11.292;2022-09-03T12:20:09;2.47;;;2.28;;
24401;SDS011;12539;48.808;11.292;2022-09-03T12:22:37;3.33;;;2.72;;
24401;SDS011;12539;48.808;11.292;2022-09-03T12:25:07;3.55;;;2.72;;
24401;SDS011;12539;48.808;11.292;2022-09-03T12:27:36;4.55;;;2.30;;
24401;SDS011;12539;48.808;11.292;2022-09-03T12:30:02;3.13;;;2.72;;
24401;SDS011;12539;48.808;11.292;2022-09-03T12:32:30;4.13;;;2.42;;
24401;SDS011;12539;48.808;11.292;2022-09-03T12:35:14;3.30;;;2.55;;
24401;SDS011;12539;48.808;11.292;2022-09-03T12:37:44;1.30;;;1.17;;
24401;SDS011;12539;48.808;11.292;2022-09-03T12:40:26;6.40;;;3.13;;
24401;SDS011;12539;48.808;11.292;2022-09-03T12:42:54;2.50;;;1.98;;
24401;SDS011;12539;48.808;11.292;2022-09-03T12:45:24;2.30;;;1.83;;
24401;SDS011;12539;48.808;11.292;2022-09-03T12:47:50;1.40;;;1.30;;
24401;SDS011;12539;48.808;11.292;2022-09-03T12:50:21;2.80;;;2.40;;
24401;SDS011;12539;48.808;11.292;2022-09-03T12:55:30;1.83;;;1.63;;
24401;SDS011;12539;48.808;11.292;2022-09-03T13:00:32;1.75;;;1.30;;
24401;SDS011;12539;48.808;11.292;2022-09-03T13:03:03;2.77;;;2.17;;
24401;SDS011;12539;48.808;11.292;2022-09-03T13:08:06;3.15;;;2.40;;
24401;SDS011;12539;48.808;11.292;2022-09-03T13:10:37;3.47;;;1.70;;
24401;SDS011;12539;48.808;11.292;2022-09-03T13:13:16;1.98;;;1.67;;
24401;SDS011;12539;48.808;11.292;2022-09-03T13:15:54;2.78;;;2.33;;
24401;SDS011;12539;48.808;11.292;2022-09-03T13:21:20;2.75;;;2.28;;
24401;SDS011;12539;48.808;11.292;2022-09-03T13:34:39;2.80;;;1.90;;
24401;SDS011;12539;48.808;11.292;2022-09-03T13:37:34;2.13;;;1.85;;
24401;SDS011;12539;48.808;11.292;2022-09-03T13:40:08;2.10;;;1.90;;
24401;SDS011;12539;48.808;11.292;2022-09-03T13:42:57;2.08;;;1.92;;
24401;SDS011;12539;48.808;11.292;2022-09-03T13:45:45;2.40;;;1.50;;
24401;SDS011;12539;48.808;11.292;2022-09-03T13:48:23;1.63;;;1.50;;
24401;SDS011;12539;48.808;11.292;2022-09-03T13:51:21;2.17;;;1.73;;
24401;SDS011;12539;48.808;11.292;2022-09-03T13:54:00;2.90;;;1.50;;
24401;SDS011;12539;48.808;11.292;2022-09-03T14:08:17;2.20;;;1.60;;
24401;SDS011;12539;48.808;11.292;2022-09-03T14:13:45;1.67;;;1.52;;
24401;SDS011;12539;48.808;11.292;2022-09-03T14:19:14;1.40;;;1.05;;
24401;SDS011;12539;48.808;11.292;2022-09-03T14:22:08;1.52;;;1.40;;
24401;SDS011;12539;48.808;11.292;2022-09-03T14:27:25;2.25;;;1.98;;
24401;SDS011;12539;48.808;11.292;2022-09-03T14:29:53;5.45;;;2.67;;
24401;SDS011;12539;48.808;11.292;2022-09-03T14:35:21;4.30;;;2.20;;
24401;SDS011;12539;48.808;11.292;2022-09-03T14:38:28;1.90;;;1.55;;
24401;SDS011;12539;48.808;11.292;2022-09-03T14:41:03;3.90;;;2.33;;
24401;SDS011;12539;48.808;11.292;2022-09-03T14:46:19;2.72;;;2.53;;
24401;SDS011;12539;48.808;11.292;2022-09-03T15:00:14;3.50;;;2.50;;
24401;SDS011;12539;48.808;11.292;2022-09-03T15:06:03;1.67;;;1.58;;
24401;SDS011;12539;48.808;11.292;2022-09-03T15:11:09;3.88;;;2.08;;
24401;SDS011;12539;48.808;11.292;2022-09-03T15:13:59;3.90;;;1.90;;
24401;SDS011;12539;48.808;11.292;2022-09-03T15:27:30;2.47;;;1.70;;
24401;SDS011;12539;48.808;11.292;2022-09-03T15:30:18;3.42;;;1.35;;
24401;SDS011;12539;48.808;11.292;2022-09-03T15:32:48;3.00;;;1.77;;
24401;SDS011;12539;48.808;11.292;2022-09-03T15:35:18;1.48;;;1.10;;
24401;SDS011;12539;48.808;11.292;2022-09-03T15:38:32;2.25;;;1.00;;
24401;SDS011;12539;48.808;11.292;2022-09-03T15:44:13;1.80;;;1.13;;
24401;SDS011;12539;48.808;11.292;2022-09-03T15:49:35;1.23;;;1.00;;
24401;SDS011;12539;48.808;11.292;2022-09-03T15:55:08;1.00;;;0.90;;
24401;SDS011;12539;48.808;11.292;2022-09-03T16:00:40;0.93;;;0.70;;
24401;SDS011;12539;48.808;11.292;2022-09-03T16:09:08;2.00;;;0.77;;
24401;SDS011;12539;48.808;11.292;2022-09-03T16:11:51;1.20;;;1.10;;
24401;SDS011;12539;48.808;11.292;2022-09-03T16:14:34;1.20;;;1.05;;
24401;SDS011;12539;48.808;11.292;2022-09-03T16:22:55;1.27;;;1.00;;
24401;SDS011;12539;48.808;11.292;2022-09-03T16:28:09;2.00;;;0.90;;
24401;SDS011;12539;48.808;11.292;2022-09-03T16:33:26;1.33;;;1.23;;
24401;SDS011;12539;48.808;11.292;2022-09-03T16:38:46;1.60;;;0.90;;
24401;SDS011;12539;48.808;11.292;2022-09-03T16:41:20;0.90;;;0.90;;
24401;SDS011;12539;48.808;11.292;2022-09-03T16:55:22;3.45;;;1.35;;
24401;SDS011;12539;48.808;11.292;2022-09-03T17:08:56;1.83;;;1.00;;
24401;SDS011;12539;48.808;11.292;2022-09-03T17:20:17;1.50;;;1.13;;
24401;SDS011;12539;48.808;11.292;2022-09-03T17:25:39;3.15;;;1.10;;
24401;SDS011;12539;48.808;11.292;2022-09-03T17:28:31;1.90;;;1.13;;
24401;SDS011;12539;48.808;11.292;2022-09-03T17:31:42;1.15;;;0.80;;
24401;SDS011;12539;48.808;11.292;2022-09-03T17:40:14;1.90;;;1.00;;
24401;SDS011;12539;48.808;11.292;2022-09-03T17:51:29;1.67;;;1.05;;
24401;SDS011;12539;48.808;11.292;2022-09-03T17:54:17;3.25;;;1.67;;
24401;SDS011;12539;48.808;11.292;2022-09-03T18:05:15;1.98;;;1.55;;
24401;SDS011;12539;48.808;11.292;2022-09-03T18:08:06;3.53;;;1.75;;
24401;SDS011;12539;48.808;11.292;2022-09-03T18:16:31;2.22;;;1.85;;
24401;SDS011;12539;48.808;11.292;2022-09-03T18:19:12;3.88;;;2.10;;
24401;SDS011;12539;48.808;11.292;2022-09-03T18:24:40;1.90;;;1.42;;
24401;SDS011;12539;48.808;11.292;2022-09-03T18:27:27;2.40;;;1.45;;
24401;SDS011;12539;48.808;11.292;2022-09-03T18:30:20;3.03;;;1.50;;
24401;SDS011;12539;48.808;11.292;2022-09-03T18:33:04;4.40;;;2.45;;
24401;SDS011;12539;48.808;11.292;2022-09-03T18:35:48;2.33;;;1.23;;
24401;SDS011;12539;48.808;11.292;2022-09-03T18:38:34;1.35;;;1.25;;
24401;SDS011;12539;48.808;11.292;2022-09-03T18:56:25;2.25;;;1.90;;
24401;SDS011;12539;48.808;11.292;2022-09-03T18:59:24;3.33;;;2.63;;
24401;SDS011;12539;48.808;11.292;2022-09-03T19:02:26;6.40;;;3.25;;
24401;SDS011;12539;48.808;11.292;2022-09-03T19:05:18;3.40;;;2.20;;
24401;SDS011;12539;48.808;11.292;2022-09-03T19:08:20;2.53;;;2.33;;
24401;SDS011;12539;48.808;11.292;2022-09-03T19:23:40;1.55;;;1.27;;
24401;SDS011;12539;48.808;11.292;2022-09-03T19:26:47;4.80;;;1.88;;
24401;SDS011;12539;48.808;11.292;2022-09-03T19:33:09;1.17;;;1.08;;
24401;SDS011;12539;48.808;11.292;2022-09-03T19:36:08;5.57;;;2.70;;
24401;SDS011;12539;48.808;11.292;2022-09-03T19:42:00;7.45;;;3.15;;
24401;SDS011;12539;48.808;11.292;2022-09-03T19:51:25;4.85;;;3.22;;
24401;SDS011;12539;48.808;11.292;2022-09-03T19:54:17;4.07;;;3.10;;
24401;SDS011;12539;48.808;11.292;2022-09-03T19:57:06;4.93;;;3.08;;
24401;SDS011;12539;48.808;11.292;2022-09-03T19:59:54;4.18;;;2.72;;
24401;SDS011;12539;48.808;11.292;2022-09-03T20:02:39;4.72;;;3.30;;
24401;SDS011;12539;48.808;11.292;2022-09-03T20:05:24;3.67;;;2.80;;
24401;SDS011;12539;48.808;11.292;2022-09-03T20:08:11;2.67;;;1.85;;
24401;SDS011;12539;48.808;11.292;2022-09-03T20:10:58;3.88;;;2.78;;
24401;SDS011;12539;48.808;11.292;2022-09-03T20:13:26;2.38;;;1.98;;
24401;SDS011;12539;48.808;11.292;2022-09-03T20:18:45;6.18;;;4.60;;
24401;SDS011;12539;48.808;11.292;2022-09-03T20:21:41;5.18;;;3.83;;
24401;SDS011;12539;48.808;11.292;2022-09-03T20:25:22;4.90;;;3.88;;
24401;SDS011;12539;48.808;11.292;2022-09-03T20:30:04;5.20;;;3.58;;
24401;SDS011;12539;48.808;11.292;2022-09-03T20:32:49;5.20;;;4.15;;
24401;SDS011;12539;48.808;11.292;2022-09-03T20:38:26;5.07;;;4.00;;
24401;SDS011;12539;48.808;11.292;2022-09-03T20:41:16;5.15;;;4.00;;
24401;SDS011;12539;48.808;11.292;2022-09-03T20:43:52;6.78;;;4.60;;
24401;SDS011;12539;48.808;11.292;2022-09-03T20:52:18;8.77;;;5.68;;
24401;SDS011;12539;48.808;11.292;2022-09-03T20:57:35;3.85;;;2.58;;
24401;SDS011;12539;48.808;11.292;2022-09-03T21:03:29;8.35;;;4.50;;
24401;SDS011;12539;48.808;11.292;2022-09-03T21:11:31;5.70;;;4.53;;
24401;SDS011;12539;48.808;11.292;2022-09-03T21:22:35;8.75;;;5.85;;
24401;SDS011;12539;48.808;11.292;2022-09-03T21:27:44;9.25;;;5.88;;
24401;SDS011;12539;48.808;11.292;2022-09-03T21:30:17;8.73;;;5.90;;
24401;SDS011;12539;48.808;11.292;2022-09-03T21:32:55;8.30;;;5.20;;
24401;SDS011;12539;48.808;11.292;2022-09-03T21:35:31;5.18;;;4.40;;
24401;SDS011;12539;48.808;11.292;2022-09-03T21:38:06;4.82;;;3.97;;
24401;SDS011;12539;48.808;11.292;2022-09-03T21:46:22;5.78;;;4.43;;
24401;SDS011;12539;48.808;11.292;2022-09-03T21:52:12;5.43;;;4.55;;
24401;SDS011;12539;48.808;11.292;2022-09-03T21:54:41;10.35;;;5.30;;
24401;SDS011;12539;48.808;11.292;2022-09-03T22:00:25;6.03;;;4.30;;
24401;SDS011;12539;48.808;11.292;2022-09-03T22:02:56;7.72;;;3.95;;
24401;SDS011;12539;48.808;11.292;2022-09-03T22:05:23;5.70;;;4.50;;